Rockford, IL

4:30 PM CST on November 25, 2014 (GMT -0600)
Rockford Plaza | Change Station
CLOSE
Current Station
Personal Weather Station
Location: Rockford, IL
Elevation: 787 ft
Nearby Weather Stations

Elev 787 ft 42.27 °N, 89.06 °W | Updated 20 seconds ago

Partly Cloudy
Partly Cloudy
20.7 °F
Feels Like 16 °F
N
3.3
Wind Variable Wind from South
Gusts 5.2 mph

Today
High -- | Low -- °F
--% Chance of Precip.
Yesterday
High -- | Low -- °F
Precip. -- in
6:59 AM 4:27 PM
Waxing Crescent, 14% visible
Pressure 30.20 in
Visibility 10.0 miles
Clouds Few 1900 ft
Windchill 16 °F
Dew Point 14 °F
Humidity 76%
Rainfall 0.05 in
Snow Depth Not available.
UV 0 out of 12
Pollen .10 out of 12
Air Quality Not available.
Flu Activity Not available.
METAR KRFD 252154Z 24006KT 10SM FEW019 M06/M11 A3017 RMK AO2 SLP227 T10611106

More Conditions Fewer Conditions

Pressure 30.20 in
Visibility 10.0 miles
Clouds Few 1900 ft
Windchill 16 °F
Dew Point 14 °F
Humidity 76%
Rainfall 0.05 in
Snow Depth Not available.
UV 0 out of 12
Pollen .10 out of 12
Air Quality Not available.
Flu Activity Not available.
METAR KRFD 252154Z 24006KT 10SM FEW019 M06/M11 A3017 RMK AO2 SLP227 T10611106

More Conditions Fewer Conditions

10-Day Weather Forecast

Almanac

Astronomy

Nov. 25, 2014 Rise Set
Actual Time
Civil Twilight
Nautical Twilight
Astronomical Twilight
Moon
Length of Visible Light
Length of Day
Tomorrow will be .
, % of the Moon is Illuminated

Today's Extremes

State Highs State Lows

Community

WunderPhotos

Upload Photos

1,773,609 photos uploaded!

WunderBlogs® & News

Nearby

Air Quality

  Air Quality AQ Index Pollutant
Not available.

Snow Depth

Station Depth Elevation

Earthquake Activity

City Distance Mag. Time & Date
Minimum magnitude displayed is 2.5.

Coastal Water Temperatures

Place Temperature

Nearby Weather Stations